sensor_id;sensor_type;location;lat;lon;timestamp;temperature;humidity
29237;DHT22;16266;50.866;4.398;2022-08-21T00:02:25;16.90;99.90
29237;DHT22;16266;50.866;4.398;2022-08-21T00:04:52;16.90;99.90
29237;DHT22;16266;50.866;4.398;2022-08-21T00:07:18;16.90;99.90
29237;DHT22;16266;50.866;4.398;2022-08-21T00:09:44;16.90;99.90
29237;DHT22;16266;50.866;4.398;2022-08-21T00:12:10;16.80;99.90
29237;DHT22;16266;50.866;4.398;2022-08-21T00:14:35;16.80;99.90
29237;DHT22;16266;50.866;4.398;2022-08-21T00:17:03;16.80;99.90
29237;DHT22;16266;50.866;4.398;2022-08-21T00:19:29;16.80;99.90
29237;DHT22;16266;50.866;4.398;2022-08-21T00:21:55;16.80;99.90
29237;DHT22;16266;50.866;4.398;2022-08-21T00:24:22;16.70;99.90
29237;DHT22;16266;50.866;4.398;2022-08-21T00:26:48;16.70;99.90
29237;DHT22;16266;50.866;4.398;2022-08-21T00:29:14;16.60;99.90
29237;DHT22;16266;50.866;4.398;2022-08-21T00:31:41;16.60;99.90
29237;DHT22;16266;50.866;4.398;2022-08-21T00:34:07;16.60;99.90
29237;DHT22;16266;50.866;4.398;2022-08-21T00:36:34;16.70;99.90
29237;DHT22;16266;50.866;4.398;2022-08-21T00:39:00;16.50;99.90
29237;DHT22;16266;50.866;4.398;2022-08-21T00:41:27;16.50;99.90
29237;DHT22;16266;50.866;4.398;2022-08-21T00:43:54;16.50;99.90
29237;DHT22;16266;50.866;4.398;2022-08-21T00:46:20;16.40;99.90
29237;DHT22;16266;50.866;4.398;2022-08-21T00:48:45;16.40;99.90
29237;DHT22;16266;50.866;4.398;2022-08-21T00:51:17;16.40;99.90
29237;DHT22;16266;50.866;4.398;2022-08-21T00:53:50;16.40;99.90
29237;DHT22;16266;50.866;4.398;2022-08-21T00:56:17;16.30;99.90
29237;DHT22;16266;50.866;4.398;2022-08-21T00:58:44;16.30;99.90
29237;DHT22;16266;50.866;4.398;2022-08-21T01:01:11;16.20;99.90
29237;DHT22;16266;50.866;4.398;2022-08-21T01:03:37;16.20;99.90
29237;DHT22;16266;50.866;4.398;2022-08-21T01:06:04;16.20;99.90
29237;DHT22;16266;50.866;4.398;2022-08-21T01:08:30;16.20;99.90
29237;DHT22;16266;50.866;4.398;2022-08-21T01:10:57;16.20;99.90
29237;DHT22;16266;50.866;4.398;2022-08-21T01:13:24;16.20;99.90
29237;DHT22;16266;50.866;4.398;2022-08-21T01:15:52;16.10;99.90
29237;DHT22;16266;50.866;4.398;2022-08-21T01:18:19;16.10;99.90
29237;DHT22;16266;50.866;4.398;2022-08-21T01:23:26;15.90;99.90
29237;DHT22;16266;50.866;4.398;2022-08-21T01:25:52;15.90;99.90
29237;DHT22;16266;50.866;4.398;2022-08-21T01:28:19;15.90;99.90
29237;DHT22;16266;50.866;4.398;2022-08-21T01:30:46;15.90;99.90
29237;DHT22;16266;50.866;4.398;2022-08-21T01:33:12;15.90;99.90
29237;DHT22;16266;50.866;4.398;2022-08-21T01:35:37;15.90;99.90
29237;DHT22;16266;50.866;4.398;2022-08-21T01:38:03;15.80;99.90
29237;DHT22;16266;50.866;4.398;2022-08-21T01:40:29;15.80;99.90
29237;DHT22;16266;50.866;4.398;2022-08-21T01:42:55;15.80;99.90
29237;DHT22;16266;50.866;4.398;2022-08-21T01:45:21;15.80;99.90
29237;DHT22;16266;50.866;4.398;2022-08-21T01:47:47;15.80;99.90
29237;DHT22;16266;50.866;4.398;2022-08-21T01:50:16;15.70;99.90
29237;DHT22;16266;50.866;4.398;2022-08-21T01:52:42;15.70;99.90
29237;DHT22;16266;50.866;4.398;2022-08-21T01:55:14;15.60;99.90
29237;DHT22;16266;50.866;4.398;2022-08-21T01:57:40;15.60;99.90
29237;DHT22;16266;50.866;4.398;2022-08-21T02:00:08;15.50;99.90
29237;DHT22;16266;50.866;4.398;2022-08-21T02:02:36;15.60;99.90
29237;DHT22;16266;50.866;4.398;2022-08-21T02:05:02;15.50;99.90
29237;DHT22;16266;50.866;4.398;2022-08-21T02:07:38;15.60;99.90
29237;DHT22;16266;50.866;4.398;2022-08-21T02:10:06;15.50;99.90
29237;DHT22;16266;50.866;4.398;2022-08-21T02:12:32;15.50;99.90
29237;DHT22;16266;50.866;4.398;2022-08-21T02:14:57;15.50;99.90
29237;DHT22;16266;50.866;4.398;2022-08-21T02:17:23;15.50;99.90
29237;DHT22;16266;50.866;4.398;2022-08-21T02:19:49;15.50;99.90
29237;DHT22;16266;50.866;4.398;2022-08-21T02:22:15;15.50;99.90
29237;DHT22;16266;50.866;4.398;2022-08-21T02:24:40;15.50;99.90
29237;DHT22;16266;50.866;4.398;2022-08-21T02:27:06;15.50;99.90
29237;DHT22;16266;50.866;4.398;2022-08-21T02:29:32;15.50;99.90
29237;DHT22;16266;50.866;4.398;2022-08-21T02:31:57;15.50;99.90
29237;DHT22;16266;50.866;4.398;2022-08-21T02:34:23;15.60;99.90
29237;DHT22;16266;50.866;4.398;2022-08-21T02:36:48;15.50;99.90
29237;DHT22;16266;50.866;4.398;2022-08-21T02:39:14;15.50;99.90
29237;DHT22;16266;50.866;4.398;2022-08-21T02:41:40;15.40;99.90
29237;DHT22;16266;50.866;4.398;2022-08-21T02:44:05;15.30;99.90
29237;DHT22;16266;50.866;4.398;2022-08-21T02:46:31;15.30;99.90
29237;DHT22;16266;50.866;4.398;2022-08-21T02:48:57;15.20;99.90
29237;DHT22;16266;50.866;4.398;2022-08-21T02:51:23;15.30;99.90
29237;DHT22;16266;50.866;4.398;2022-08-21T02:53:50;15.30;99.90
29237;DHT22;16266;50.866;4.398;2022-08-21T02:56:19;15.30;99.90
29237;DHT22;16266;50.866;4.398;2022-08-21T02:58:50;15.30;99.90
29237;DHT22;16266;50.866;4.398;2022-08-21T03:01:17;15.30;99.90
29237;DHT22;16266;50.866;4.398;2022-08-21T03:03:44;15.20;99.90
29237;DHT22;16266;50.866;4.398;2022-08-21T03:06:13;15.20;99.90
29237;DHT22;16266;50.866;4.398;2022-08-21T03:08:39;15.20;99.90
29237;DHT22;16266;50.866;4.398;2022-08-21T03:11:05;15.20;99.90
29237;DHT22;16266;50.866;4.398;2022-08-21T03:13:31;15.20;99.90
29237;DHT22;16266;50.866;4.398;2022-08-21T03:15:57;15.30;99.90
29237;DHT22;16266;50.866;4.398;2022-08-21T03:18:23;15.30;99.90
29237;DHT22;16266;50.866;4.398;2022-08-21T03:20:49;15.20;99.90
29237;DHT22;16266;50.866;4.398;2022-08-21T03:23:16;15.30;99.90
29237;DHT22;16266;50.866;4.398;2022-08-21T03:25:43;15.20;99.90
29237;DHT22;16266;50.866;4.398;2022-08-21T03:28:12;15.30;99.90
29237;DHT22;16266;50.866;4.398;2022-08-21T03:30:38;15.20;99.90
29237;DHT22;16266;50.866;4.398;2022-08-21T03:33:03;15.20;99.90
29237;DHT22;16266;50.866;4.398;2022-08-21T03:35:30;15.20;99.90
29237;DHT22;16266;50.866;4.398;2022-08-21T03:37:56;15.20;99.90
29237;DHT22;16266;50.866;4.398;2022-08-21T03:40:23;15.20;99.90
29237;DHT22;16266;50.866;4.398;2022-08-21T03:42:50;15.10;99.90
29237;DHT22;16266;50.866;4.398;2022-08-21T03:45:17;15.10;99.90
29237;DHT22;16266;50.866;4.398;2022-08-21T03:50:18;15.10;99.90
29237;DHT22;16266;50.866;4.398;2022-08-21T03:52:43;15.20;99.90
29237;DHT22;16266;50.866;4.398;2022-08-21T03:55:10;15.20;99.90
29237;DHT22;16266;50.866;4.398;2022-08-21T03:57:36;15.20;99.90
29237;DHT22;16266;50.866;4.398;2022-08-21T04:00:02;15.20;99.90
29237;DHT22;16266;50.866;4.398;2022-08-21T04:02:28;15.20;99.90
29237;DHT22;16266;50.866;4.398;2022-08-21T04:04:53;15.20;99.90
29237;DHT22;16266;50.866;4.398;2022-08-21T04:07:19;15.30;99.90
29237;DHT22;16266;50.866;4.398;2022-08-21T04:09:44;15.30;99.90
29237;DHT22;16266;50.866;4.398;2022-08-21T04:12:10;15.30;99.90
29237;DHT22;16266;50.866;4.398;2022-08-21T04:14:36;15.20;99.90
29237;DHT22;16266;50.866;4.398;2022-08-21T04:17:02;15.20;99.90
29237;DHT22;16266;50.866;4.398;2022-08-21T04:19:28;15.20;99.90
29237;DHT22;16266;50.866;4.398;2022-08-21T04:21:53;15.20;99.90
29237;DHT22;16266;50.866;4.398;2022-08-21T04:24:19;15.10;99.90
29237;DHT22;16266;50.866;4.398;2022-08-21T04:26:45;15.00;99.90
29237;DHT22;16266;50.866;4.398;2022-08-21T04:29:10;15.10;99.90
29237;DHT22;16266;50.866;4.398;2022-08-21T04:31:37;15.10;99.90
29237;DHT22;16266;50.866;4.398;2022-08-21T04:34:04;15.10;99.90
29237;DHT22;16266;50.866;4.398;2022-08-21T04:36:30;15.10;99.90
29237;DHT22;16266;50.866;4.398;2022-08-21T04:38:56;15.10;99.90
29237;DHT22;16266;50.866;4.398;2022-08-21T04:41:22;15.10;99.90
29237;DHT22;16266;50.866;4.398;2022-08-21T04:43:48;15.20;99.90
29237;DHT22;16266;50.866;4.398;2022-08-21T04:46:13;15.30;99.90
29237;DHT22;16266;50.866;4.398;2022-08-21T04:48:39;15.30;99.90
29237;DHT22;16266;50.866;4.398;2022-08-21T04:56:08;15.40;99.90
29237;DHT22;16266;50.866;4.398;2022-08-21T04:58:36;15.40;99.90
29237;DHT22;16266;50.866;4.398;2022-08-21T05:01:04;15.40;99.90
29237;DHT22;16266;50.866;4.398;2022-08-21T05:03:33;15.40;99.90
29237;DHT22;16266;50.866;4.398;2022-08-21T05:06:00;15.50;99.90
29237;DHT22;16266;50.866;4.398;2022-08-21T05:08:27;15.60;99.90
29237;DHT22;16266;50.866;4.398;2022-08-21T05:10:53;15.70;99.90
29237;DHT22;16266;50.866;4.398;2022-08-21T05:13:19;15.70;99.90
29237;DHT22;16266;50.866;4.398;2022-08-21T05:15:46;15.80;99.90
29237;DHT22;16266;50.866;4.398;2022-08-21T05:18:12;16.10;99.90
29237;DHT22;16266;50.866;4.398;2022-08-21T05:20:37;16.70;99.90
29237;DHT22;16266;50.866;4.398;2022-08-21T05:23:08;17.60;99.90
29237;DHT22;16266;50.866;4.398;2022-08-21T05:25:33;18.60;99.90
29237;DHT22;16266;50.866;4.398;2022-08-21T05:27:59;19.40;99.90
29237;DHT22;16266;50.866;4.398;2022-08-21T05:30:25;20.20;99.90
29237;DHT22;16266;50.866;4.398;2022-08-21T05:32:56;20.90;99.90
29237;DHT22;16266;50.866;4.398;2022-08-21T05:35:22;21.80;99.90
29237;DHT22;16266;50.866;4.398;2022-08-21T05:37:47;22.60;99.90
29237;DHT22;16266;50.866;4.398;2022-08-21T05:40:13;23.20;99.90
29237;DHT22;16266;50.866;4.398;2022-08-21T05:42:39;23.50;99.90
29237;DHT22;16266;50.866;4.398;2022-08-21T05:45:05;23.40;99.90
29237;DHT22;16266;50.866;4.398;2022-08-21T05:47:31;23.30;99.90
29237;DHT22;16266;50.866;4.398;2022-08-21T05:49:56;23.40;99.90
29237;DHT22;16266;50.866;4.398;2022-08-21T05:52:22;23.80;99.90
29237;DHT22;16266;50.866;4.398;2022-08-21T05:54:48;24.20;99.90
29237;DHT22;16266;50.866;4.398;2022-08-21T05:57:14;24.60;99.90
29237;DHT22;16266;50.866;4.398;2022-08-21T05:59:39;25.20;99.90
29237;DHT22;16266;50.866;4.398;2022-08-21T06:02:05;25.60;98.40
29237;DHT22;16266;50.866;4.398;2022-08-21T06:04:36;26.10;94.10
29237;DHT22;16266;50.866;4.398;2022-08-21T06:07:01;26.70;87.40
29237;DHT22;16266;50.866;4.398;2022-08-21T06:09:27;26.90;79.50
29237;DHT22;16266;50.866;4.398;2022-08-21T06:11:53;27.50;74.40
29237;DHT22;16266;50.866;4.398;2022-08-21T06:14:18;27.80;68.00
29237;DHT22;16266;50.866;4.398;2022-08-21T06:16:44;28.10;63.00
29237;DHT22;16266;50.866;4.398;2022-08-21T06:19:09;28.50;60.40
29237;DHT22;16266;50.866;4.398;2022-08-21T06:21:35;29.00;55.70
29237;DHT22;16266;50.866;4.398;2022-08-21T06:24:00;29.60;52.40
29237;DHT22;16266;50.866;4.398;2022-08-21T06:26:26;30.00;49.70
29237;DHT22;16266;50.866;4.398;2022-08-21T06:28:53;30.40;45.80
29237;DHT22;16266;50.866;4.398;2022-08-21T06:31:24;30.20;43.90
29237;DHT22;16266;50.866;4.398;2022-08-21T06:33:51;30.50;42.60
29237;DHT22;16266;50.866;4.398;2022-08-21T06:36:17;31.10;40.10
29237;DHT22;16266;50.866;4.398;2022-08-21T06:38:43;31.00;38.80
29237;DHT22;16266;50.866;4.398;2022-08-21T06:41:09;30.70;38.90
29237;DHT22;16266;50.866;4.398;2022-08-21T06:43:34;30.90;37.90
29237;DHT22;16266;50.866;4.398;2022-08-21T06:46:00;31.30;36.40
29237;DHT22;16266;50.866;4.398;2022-08-21T06:48:26;31.70;35.40
29237;DHT22;16266;50.866;4.398;2022-08-21T06:50:51;32.20;33.50
29237;DHT22;16266;50.866;4.398;2022-08-21T06:53:19;32.90;32.20
29237;DHT22;16266;50.866;4.398;2022-08-21T06:55:46;33.00;30.00
29237;DHT22;16266;50.866;4.398;2022-08-21T06:58:12;33.30;28.80
29237;DHT22;16266;50.866;4.398;2022-08-21T07:00:41;33.60;27.70
29237;DHT22;16266;50.866;4.398;2022-08-21T07:03:07;34.20;26.10
29237;DHT22;16266;50.866;4.398;2022-08-21T07:05:40;34.80;25.10
29237;DHT22;16266;50.866;4.398;2022-08-21T07:08:06;34.90;24.20
29237;DHT22;16266;50.866;4.398;2022-08-21T07:10:32;35.40;23.20
29237;DHT22;16266;50.866;4.398;2022-08-21T07:12:58;35.60;22.20
29237;DHT22;16266;50.866;4.398;2022-08-21T07:15:23;36.10;21.00
29237;DHT22;16266;50.866;4.398;2022-08-21T07:17:49;36.40;20.70
29237;DHT22;16266;50.866;4.398;2022-08-21T07:20:14;37.10;19.80
29237;DHT22;16266;50.866;4.398;2022-08-21T07:22:40;37.40;18.40
29237;DHT22;16266;50.866;4.398;2022-08-21T07:25:07;37.50;18.00
29237;DHT22;16266;50.866;4.398;2022-08-21T07:27:32;37.50;17.60
29237;DHT22;16266;50.866;4.398;2022-08-21T07:29:58;37.80;17.10
29237;DHT22;16266;50.866;4.398;2022-08-21T07:32:25;37.90;16.30
29237;DHT22;16266;50.866;4.398;2022-08-21T07:34:50;36.90;16.80
29237;DHT22;16266;50.866;4.398;2022-08-21T07:37:16;36.30;17.50
29237;DHT22;16266;50.866;4.398;2022-08-21T07:39:41;35.60;18.30
29237;DHT22;16266;50.866;4.398;2022-08-21T07:42:07;35.70;18.70
29237;DHT22;16266;50.866;4.398;2022-08-21T07:44:33;36.60;18.10
29237;DHT22;16266;50.866;4.398;2022-08-21T07:47:00;37.30;17.20
29237;DHT22;16266;50.866;4.398;2022-08-21T07:49:27;37.50;16.70
29237;DHT22;16266;50.866;4.398;2022-08-21T07:51:52;37.40;16.80
29237;DHT22;16266;50.866;4.398;2022-08-21T07:54:18;38.00;16.40
29237;DHT22;16266;50.866;4.398;2022-08-21T07:56:44;38.10;15.50
29237;DHT22;16266;50.866;4.398;2022-08-21T07:59:09;37.50;16.20
29237;DHT22;16266;50.866;4.398;2022-08-21T08:01:35;37.50;16.30
29237;DHT22;16266;50.866;4.398;2022-08-21T08:04:01;37.10;16.50
29237;DHT22;16266;50.866;4.398;2022-08-21T08:06:26;37.30;16.80
29237;DHT22;16266;50.866;4.398;2022-08-21T08:08:52;37.10;16.40
29237;DHT22;16266;50.866;4.398;2022-08-21T08:11:18;36.50;16.30
29237;DHT22;16266;50.866;4.398;2022-08-21T08:13:48;36.00;17.20
29237;DHT22;16266;50.866;4.398;2022-08-21T08:16:16;35.60;17.80
29237;DHT22;16266;50.866;4.398;2022-08-21T08:18:42;35.40;18.40
29237;DHT22;16266;50.866;4.398;2022-08-21T08:21:09;35.20;18.20
29237;DHT22;16266;50.866;4.398;2022-08-21T08:23:35;34.60;18.50
29237;DHT22;16266;50.866;4.398;2022-08-21T08:26:01;33.80;19.40
29237;DHT22;16266;50.866;4.398;2022-08-21T08:28:30;33.60;20.10
29237;DHT22;16266;50.866;4.398;2022-08-21T08:30:58;33.10;20.30
29237;DHT22;16266;50.866;4.398;2022-08-21T08:33:23;32.20;22.10
29237;DHT22;16266;50.866;4.398;2022-08-21T08:35:50;32.60;22.10
29237;DHT22;16266;50.866;4.398;2022-08-21T08:38:18;33.40;21.40
29237;DHT22;16266;50.866;4.398;2022-08-21T08:43:33;34.90;19.40
29237;DHT22;16266;50.866;4.398;2022-08-21T08:46:03;35.80;18.60
29237;DHT22;16266;50.866;4.398;2022-08-21T08:48:53;36.70;17.60
29237;DHT22;16266;50.866;4.398;2022-08-21T08:51:40;37.40;16.50
29237;DHT22;16266;50.866;4.398;2022-08-21T08:54:21;37.90;15.90
29237;DHT22;16266;50.866;4.398;2022-08-21T08:56:51;38.50;15.20
29237;DHT22;16266;50.866;4.398;2022-08-21T08:59:38;38.60;14.80
29237;DHT22;16266;50.866;4.398;2022-08-21T09:02:05;39.50;13.80
29237;DHT22;16266;50.866;4.398;2022-08-21T09:04:31;39.10;14.00
29237;DHT22;16266;50.866;4.398;2022-08-21T09:10:30;38.60;13.70
29237;DHT22;16266;50.866;4.398;2022-08-21T09:26:24;40.10;11.00
29237;DHT22;16266;50.866;4.398;2022-08-21T09:28:57;37.40;12.20
29237;DHT22;16266;50.866;4.398;2022-08-21T09:31:26;36.20;13.80
29237;DHT22;16266;50.866;4.398;2022-08-21T09:34:05;36.60;14.40
29237;DHT22;16266;50.866;4.398;2022-08-21T09:36:42;38.30;13.20
29237;DHT22;16266;50.866;4.398;2022-08-21T09:39:10;38.80;12.20
29237;DHT22;16266;50.866;4.398;2022-08-21T09:41:37;39.00;11.70
29237;DHT22;16266;50.866;4.398;2022-08-21T09:44:05;39.60;11.80
29237;DHT22;16266;50.866;4.398;2022-08-21T09:46:31;39.20;11.30
29237;DHT22;16266;50.866;4.398;2022-08-21T09:48:59;39.10;11.00
29237;DHT22;16266;50.866;4.398;2022-08-21T09:51:32;37.70;12.40
29237;DHT22;16266;50.866;4.398;2022-08-21T09:54:18;37.10;12.50
29237;DHT22;16266;50.866;4.398;2022-08-21T09:59:42;35.00;14.80
29237;DHT22;16266;50.866;4.398;2022-08-21T10:02:33;34.30;15.60
29237;DHT22;16266;50.866;4.398;2022-08-21T10:05:18;33.60;16.60
29237;DHT22;16266;50.866;4.398;2022-08-21T10:07:44;33.90;16.80
29237;DHT22;16266;50.866;4.398;2022-08-21T10:10:23;34.40;16.20
29237;DHT22;16266;50.866;4.398;2022-08-21T10:18:40;34.10;17.00
29237;DHT22;16266;50.866;4.398;2022-08-21T10:21:23;35.00;16.70
29237;DHT22;16266;50.866;4.398;2022-08-21T10:24:37;37.30;14.00
29237;DHT22;16266;50.866;4.398;2022-08-21T10:40:26;38.00;11.60
29237;DHT22;16266;50.866;4.398;2022-08-21T10:43:24;37.00;12.20
29237;DHT22;16266;50.866;4.398;2022-08-21T10:54:43;38.80;11.30
29237;DHT22;16266;50.866;4.398;2022-08-21T10:57:22;40.00;10.50
29237;DHT22;16266;50.866;4.398;2022-08-21T11:00:03;39.20;10.50
29237;DHT22;16266;50.866;4.398;2022-08-21T11:02:37;38.30;11.30
29237;DHT22;16266;50.866;4.398;2022-08-21T11:05:14;37.40;12.40
29237;DHT22;16266;50.866;4.398;2022-08-21T11:10:24;34.20;15.30
29237;DHT22;16266;50.866;4.398;2022-08-21T11:13:00;33.80;15.60
29237;DHT22;16266;50.866;4.398;2022-08-21T11:15:39;34.20;15.50
29237;DHT22;16266;50.866;4.398;2022-08-21T11:23:54;33.90;16.70
29237;DHT22;16266;50.866;4.398;2022-08-21T11:26:36;33.90;16.40
29237;DHT22;16266;50.866;4.398;2022-08-21T11:29:17;33.20;16.90
29237;DHT22;16266;50.866;4.398;2022-08-21T11:34:47;32.20;18.70
29237;DHT22;16266;50.866;4.398;2022-08-21T11:40:46;32.60;18.30
29237;DHT22;16266;50.866;4.398;2022-08-21T11:43:34;32.50;18.20
29237;DHT22;16266;50.866;4.398;2022-08-21T11:51:45;33.20;18.10
29237;DHT22;16266;50.866;4.398;2022-08-21T11:56:48;35.80;15.30
29237;DHT22;16266;50.866;4.398;2022-08-21T11:59:40;36.30;13.90
29237;DHT22;16266;50.866;4.398;2022-08-21T12:02:13;36.60;13.70
29237;DHT22;16266;50.866;4.398;2022-08-21T12:04:53;37.70;13.40
29237;DHT22;16266;50.866;4.398;2022-08-21T12:07:39;37.90;12.40
29237;DHT22;16266;50.866;4.398;2022-08-21T12:10:12;37.80;11.70
29237;DHT22;16266;50.866;4.398;2022-08-21T12:12:40;38.80;11.60
29237;DHT22;16266;50.866;4.398;2022-08-21T12:15:24;41.20;9.80
29237;DHT22;16266;50.866;4.398;2022-08-21T12:17:53;42.50;8.80
29237;DHT22;16266;50.866;4.398;2022-08-21T12:22:53;43.30;7.00
29237;DHT22;16266;50.866;4.398;2022-08-21T12:25:20;42.20;7.40
29237;DHT22;16266;50.866;4.398;2022-08-21T12:27:51;39.90;8.50
29237;DHT22;16266;50.866;4.398;2022-08-21T12:32:57;37.20;10.50
29237;DHT22;16266;50.866;4.398;2022-08-21T12:35:36;36.90;10.80
29237;DHT22;16266;50.866;4.398;2022-08-21T12:38:15;35.20;12.00
29237;DHT22;16266;50.866;4.398;2022-08-21T12:40:47;34.00;13.60
29237;DHT22;16266;50.866;4.398;2022-08-21T12:43:20;34.20;13.30
29237;DHT22;16266;50.866;4.398;2022-08-21T12:45:49;35.80;13.30
29237;DHT22;16266;50.866;4.398;2022-08-21T12:53:57;34.70;12.20
29237;DHT22;16266;50.866;4.398;2022-08-21T12:56:30;33.40;13.70
29237;DHT22;16266;50.866;4.398;2022-08-21T12:59:02;32.10;15.10
29237;DHT22;16266;50.866;4.398;2022-08-21T13:01:38;31.20;16.40
29237;DHT22;16266;50.866;4.398;2022-08-21T13:04:10;31.10;17.20
29237;DHT22;16266;50.866;4.398;2022-08-21T13:06:41;31.50;17.20
29237;DHT22;16266;50.866;4.398;2022-08-21T13:09:12;32.00;16.70
29237;DHT22;16266;50.866;4.398;2022-08-21T13:11:45;31.90;17.00
29237;DHT22;16266;50.866;4.398;2022-08-21T13:14:37;31.80;16.70
29237;DHT22;16266;50.866;4.398;2022-08-21T13:17:05;31.70;16.80
29237;DHT22;16266;50.866;4.398;2022-08-21T13:19:32;31.60;17.20
29237;DHT22;16266;50.866;4.398;2022-08-21T13:21:58;31.90;17.50
29237;DHT22;16266;50.866;4.398;2022-08-21T13:24:28;31.80;17.10
29237;DHT22;16266;50.866;4.398;2022-08-21T13:26:54;32.00;17.20
29237;DHT22;16266;50.866;4.398;2022-08-21T13:29:26;31.90;17.40
29237;DHT22;16266;50.866;4.398;2022-08-21T13:31:57;31.90;17.40
29237;DHT22;16266;50.866;4.398;2022-08-21T13:34:26;32.10;17.20
29237;DHT22;16266;50.866;4.398;2022-08-21T13:36:57;32.00;17.60
29237;DHT22;16266;50.866;4.398;2022-08-21T13:39:24;32.50;17.30
29237;DHT22;16266;50.866;4.398;2022-08-21T13:41:53;32.30;16.30
29237;DHT22;16266;50.866;4.398;2022-08-21T13:44:23;32.50;16.60
29237;DHT22;16266;50.866;4.398;2022-08-21T13:46:52;32.10;16.90
29237;DHT22;16266;50.866;4.398;2022-08-21T13:49:32;31.00;17.60
29237;DHT22;16266;50.866;4.398;2022-08-21T13:51:58;30.80;18.50
29237;DHT22;16266;50.866;4.398;2022-08-21T13:54:36;31.00;18.10
29237;DHT22;16266;50.866;4.398;2022-08-21T13:57:03;31.50;17.40
29237;DHT22;16266;50.866;4.398;2022-08-21T13:59:32;31.70;17.60
29237;DHT22;16266;50.866;4.398;2022-08-21T14:02:01;31.80;17.40
29237;DHT22;16266;50.866;4.398;2022-08-21T14:04:38;31.80;17.10
29237;DHT22;16266;50.866;4.398;2022-08-21T14:07:20;31.60;17.90
29237;DHT22;16266;50.866;4.398;2022-08-21T14:09:47;31.60;17.90
29237;DHT22;16266;50.866;4.398;2022-08-21T14:12:17;31.50;17.30
29237;DHT22;16266;50.866;4.398;2022-08-21T14:14:45;31.70;17.40
29237;DHT22;16266;50.866;4.398;2022-08-21T14:17:13;31.40;17.60
29237;DHT22;16266;50.866;4.398;2022-08-21T14:19:50;31.80;17.70
29237;DHT22;16266;50.866;4.398;2022-08-21T14:22:23;31.60;17.50
29237;DHT22;16266;50.866;4.398;2022-08-21T14:24:59;31.50;17.80
29237;DHT22;16266;50.866;4.398;2022-08-21T14:27:28;31.10;18.10
29237;DHT22;16266;50.866;4.398;2022-08-21T14:29:58;30.90;17.80
29237;DHT22;16266;50.866;4.398;2022-08-21T14:32:28;30.80;18.10
29237;DHT22;16266;50.866;4.398;2022-08-21T14:34:55;30.70;18.60
29237;DHT22;16266;50.866;4.398;2022-08-21T14:37:22;30.10;19.20
29237;DHT22;16266;50.866;4.398;2022-08-21T14:39:48;30.10;19.80
29237;DHT22;16266;50.866;4.398;2022-08-21T14:42:14;30.20;19.70
29237;DHT22;16266;50.866;4.398;2022-08-21T14:44:40;30.40;20.00
29237;DHT22;16266;50.866;4.398;2022-08-21T14:47:07;30.30;19.80
29237;DHT22;16266;50.866;4.398;2022-08-21T14:49:33;30.20;20.30
29237;DHT22;16266;50.866;4.398;2022-08-21T14:51:58;30.10;20.10
29237;DHT22;16266;50.866;4.398;2022-08-21T14:54:29;30.30;20.50
29237;DHT22;16266;50.866;4.398;2022-08-21T14:56:57;30.40;20.00
29237;DHT22;16266;50.866;4.398;2022-08-21T14:59:23;30.40;20.60
29237;DHT22;16266;50.866;4.398;2022-08-21T15:01:51;30.50;20.70
29237;DHT22;16266;50.866;4.398;2022-08-21T15:04:17;31.00;20.70
29237;DHT22;16266;50.866;4.398;2022-08-21T15:06:43;30.90;19.70
29237;DHT22;16266;50.866;4.398;2022-08-21T15:09:08;30.30;18.80
29237;DHT22;16266;50.866;4.398;2022-08-21T15:11:34;30.10;19.60
29237;DHT22;16266;50.866;4.398;2022-08-21T15:14:05;30.40;19.50
29237;DHT22;16266;50.866;4.398;2022-08-21T15:16:32;30.60;19.80
29237;DHT22;16266;50.866;4.398;2022-08-21T15:18:58;30.60;19.80
29237;DHT22;16266;50.866;4.398;2022-08-21T15:21:24;30.40;20.00
29237;DHT22;16266;50.866;4.398;2022-08-21T15:23:49;30.40;20.10
29237;DHT22;16266;50.866;4.398;2022-08-21T15:26:15;30.50;20.60
29237;DHT22;16266;50.866;4.398;2022-08-21T15:28:41;30.30;20.10
29237;DHT22;16266;50.866;4.398;2022-08-21T15:31:07;30.40;20.90
29237;DHT22;16266;50.866;4.398;2022-08-21T15:33:33;30.40;20.20
29237;DHT22;16266;50.866;4.398;2022-08-21T15:35:59;30.40;19.10
29237;DHT22;16266;50.866;4.398;2022-08-21T15:38:25;30.30;19.00
29237;DHT22;16266;50.866;4.398;2022-08-21T15:40:50;30.30;18.80
29237;DHT22;16266;50.866;4.398;2022-08-21T15:46:05;29.60;20.30
29237;DHT22;16266;50.866;4.398;2022-08-21T15:48:31;29.20;20.30
29237;DHT22;16266;50.866;4.398;2022-08-21T15:50:56;29.30;20.90
29237;DHT22;16266;50.866;4.398;2022-08-21T15:53:22;29.10;20.90
29237;DHT22;16266;50.866;4.398;2022-08-21T15:55:48;28.80;21.50
29237;DHT22;16266;50.866;4.398;2022-08-21T15:58:15;28.80;21.70
29237;DHT22;16266;50.866;4.398;2022-08-21T16:00:43;28.70;22.50
29237;DHT22;16266;50.866;4.398;2022-08-21T16:03:13;28.50;21.90
29237;DHT22;16266;50.866;4.398;2022-08-21T16:05:42;28.60;22.50
29237;DHT22;16266;50.866;4.398;2022-08-21T16:08:08;28.60;22.40
29237;DHT22;16266;50.866;4.398;2022-08-21T16:10:36;28.50;22.40
29237;DHT22;16266;50.866;4.398;2022-08-21T16:13:10;28.30;22.70
29237;DHT22;16266;50.866;4.398;2022-08-21T16:15:37;28.30;23.10
29237;DHT22;16266;50.866;4.398;2022-08-21T16:18:03;28.20;23.30
29237;DHT22;16266;50.866;4.398;2022-08-21T16:20:29;28.10;23.40
29237;DHT22;16266;50.866;4.398;2022-08-21T16:22:56;28.10;23.90
29237;DHT22;16266;50.866;4.398;2022-08-21T16:25:22;28.00;23.70
29237;DHT22;16266;50.866;4.398;2022-08-21T16:27:51;28.00;25.00
29237;DHT22;16266;50.866;4.398;2022-08-21T16:30:18;27.80;25.00
29237;DHT22;16266;50.866;4.398;2022-08-21T16:32:44;27.90;24.20
29237;DHT22;16266;50.866;4.398;2022-08-21T16:35:16;27.80;24.50
29237;DHT22;16266;50.866;4.398;2022-08-21T16:37:43;27.30;24.60
29237;DHT22;16266;50.866;4.398;2022-08-21T16:40:10;27.00;25.30
29237;DHT22;16266;50.866;4.398;2022-08-21T16:42:37;26.50;26.00
29237;DHT22;16266;50.866;4.398;2022-08-21T16:45:12;26.60;27.30
29237;DHT22;16266;50.866;4.398;2022-08-21T16:47:38;26.60;27.30
29237;DHT22;16266;50.866;4.398;2022-08-21T16:50:04;26.60;27.40
29237;DHT22;16266;50.866;4.398;2022-08-21T16:52:32;26.70;27.80
29237;DHT22;16266;50.866;4.398;2022-08-21T16:54:58;26.60;28.00
29237;DHT22;16266;50.866;4.398;2022-08-21T16:57:24;26.60;28.20
29237;DHT22;16266;50.866;4.398;2022-08-21T16:59:50;26.70;28.40
29237;DHT22;16266;50.866;4.398;2022-08-21T17:02:41;26.80;28.30
29237;DHT22;16266;50.866;4.398;2022-08-21T17:05:07;27.00;28.40
29237;DHT22;16266;50.866;4.398;2022-08-21T17:07:34;27.10;27.80
29237;DHT22;16266;50.866;4.398;2022-08-21T17:09:59;27.00;28.00
29237;DHT22;16266;50.866;4.398;2022-08-21T17:12:25;27.10;28.60
29237;DHT22;16266;50.866;4.398;2022-08-21T17:14:51;27.20;27.90
29237;DHT22;16266;50.866;4.398;2022-08-21T17:17:17;27.20;28.00